Sidney, Nebraska
Current Conditions -  °F | °C
As of 10:53 AM on Thursday 27 Nov 2014 (Local Time) from KSNY Reporting Station
Clear Clear  
Wind Chill: 40°   Ceiling: Unl
Heat Index: 46°   Visibility: 10mi
Dew Point: 30°   Wind: 13mph
Humidity: 54%   Direction: 220°SW
Pressure: 30.13"   Gusts: NA
Location:  41.14°N, 102.97°W
Report Text: KSNY 271753Z AUTO 22011KT 10SM CLR 08/M01 A3013 RMK AO2 SLP229 T00781011 10078 21067 58007
Loading
Personal Weather Stations






























Interactive Weather Map New forecast layout! Learn more

10-Day Weather Forecast

Advertisements
Track Severe Weather on mobile